createdAt,value
2022-08-28T00:00:40.302Z,7.60
2022-08-28T00:04:15.501Z,10.80
2022-08-28T00:07:52.505Z,8.30
2022-08-28T00:11:29.413Z,10.50
2022-08-28T00:15:09.735Z,7.20
2022-08-28T00:18:42.632Z,9.00
2022-08-28T00:22:19.452Z,8.80
2022-08-28T00:25:56.423Z,7.30
2022-08-28T00:29:52.319Z,14.20
2022-08-28T00:33:34.548Z,10.50
2022-08-28T00:36:55.929Z,12.30
2022-08-28T00:40:34.256Z,9.70
2022-08-28T00:44:16.165Z,9.70
2022-08-28T00:47:46.273Z,9.00
2022-08-28T00:51:41.775Z,7.90
2022-08-28T00:55:14.328Z,10.40
2022-08-28T00:58:43.979Z,14.10
2022-08-28T01:02:18.827Z,8.40
2022-08-28T01:05:55.826Z,10.60
2022-08-28T01:09:32.872Z,8.40
2022-08-28T01:13:08.072Z,7.50
2022-08-28T01:16:47.027Z,12.10
2022-08-28T01:20:26.850Z,9.70
2022-08-28T01:24:12.048Z,10.20
2022-08-28T01:27:35.867Z,13.00
2022-08-28T01:31:14.706Z,13.20
2022-08-28T01:34:48.937Z,12.90
2022-08-28T01:38:26.969Z,14.80
2022-08-28T01:42:02.531Z,11.40
2022-08-28T01:45:41.792Z,10.00
2022-08-28T01:49:16.362Z,8.40
2022-08-28T01:52:52.708Z,12.80
2022-08-28T01:56:29.948Z,11.30
2022-08-28T02:00:46.486Z,11.10
2022-08-28T02:04:11.501Z,13.70
2022-08-28T02:07:47.166Z,15.90
2022-08-28T02:11:24.459Z,13.80
2022-08-28T02:15:00.637Z,14.00
2022-08-28T02:18:38.978Z,14.20
2022-08-28T02:22:13.842Z,13.40
2022-08-28T02:26:11.483Z,12.40
2022-08-28T02:29:33.386Z,13.80
2022-08-28T02:33:10.364Z,13.00
2022-08-28T02:36:48.078Z,12.40
2022-08-28T02:40:26.103Z,12.00
2022-08-28T02:44:00.446Z,11.90
2022-08-28T02:47:42.566Z,10.60
2022-08-28T02:51:15.094Z,10.00
2022-08-28T02:54:50.848Z,11.50
2022-08-28T02:58:27.443Z,10.90
2022-08-28T03:02:23.793Z,12.20
2022-08-28T03:05:46.581Z,15.00
2022-08-28T03:09:23.878Z,10.30
2022-08-28T03:13:00.552Z,10.90
2022-08-28T03:16:37.106Z,11.80
2022-08-28T03:20:15.140Z,13.60
2022-08-28T03:24:09.724Z,9.80
2022-08-28T03:27:51.511Z,9.80
2022-08-28T03:31:17.985Z,12.90
2022-08-28T03:34:50.093Z,10.80
2022-08-28T03:38:28.079Z,10.40
2022-08-28T03:42:03.854Z,12.40
2022-08-28T03:45:40.973Z,12.10
2022-08-28T03:49:17.068Z,12.20
2022-08-28T03:52:55.404Z,12.80
2022-08-28T03:56:32.323Z,12.20
2022-08-28T04:00:11.236Z,11.20
2022-08-28T04:03:44.655Z,12.00
2022-08-28T04:07:22.429Z,10.10
2022-08-28T04:10:59.638Z,11.50
2022-08-28T04:14:35.679Z,10.00
2022-08-28T04:18:13.023Z,14.80
2022-08-28T04:21:48.486Z,10.50
2022-08-28T04:25:25.321Z,13.70
2022-08-28T04:29:03.935Z,10.60
2022-08-28T04:32:39.594Z,11.90
2022-08-28T04:36:18.013Z,12.90
2022-08-28T04:39:52.488Z,14.30
2022-08-28T04:43:29.163Z,9.20
2022-08-28T04:47:06.328Z,15.50
2022-08-28T04:50:45.965Z,14.50
2022-08-28T04:54:20.770Z,13.20
2022-08-28T04:57:56.214Z,14.60
2022-08-28T05:01:33.185Z,13.80
2022-08-28T05:05:10.268Z,12.80
2022-08-28T05:08:47.373Z,14.40
2022-08-28T05:12:24.007Z,14.70
2022-08-28T05:16:04.208Z,10.70
2022-08-28T05:19:36.985Z,15.40
2022-08-28T05:23:15.578Z,17.50
2022-08-28T05:26:50.683Z,15.20
2022-08-28T05:30:27.785Z,17.30
2022-08-28T05:34:05.139Z,16.30
2022-08-28T05:37:41.097Z,19.90
2022-08-28T05:41:24.264Z,16.30
2022-08-28T05:44:54.828Z,12.90
2022-08-28T05:48:35.201Z,18.30
2022-08-28T05:52:28.197Z,15.40
2022-08-28T05:55:51.759Z,17.50
2022-08-28T05:59:26.494Z,21.00
2022-08-28T06:03:03.357Z,14.30
2022-08-28T06:06:41.374Z,14.50
2022-08-28T06:10:17.195Z,16.80
2022-08-28T06:13:54.641Z,13.70
2022-08-28T06:17:31.097Z,13.70
2022-08-28T06:21:07.222Z,16.40
2022-08-28T06:24:44.022Z,16.50
2022-08-28T06:28:24.022Z,15.80
2022-08-28T06:32:01.145Z,14.60
2022-08-28T06:35:55.209Z,11.50
2022-08-28T06:39:17.160Z,11.50
2022-08-28T06:42:55.495Z,16.20
2022-08-28T06:46:33.315Z,19.00
2022-08-28T06:50:08.892Z,19.30
2022-08-28T06:53:46.327Z,14.40
2022-08-28T06:57:22.055Z,15.50
2022-08-28T07:01:03.295Z,13.00
2022-08-28T07:04:35.411Z,13.60
2022-08-28T07:08:11.708Z,15.30
2022-08-28T07:11:49.066Z,14.00
2022-08-28T07:15:25.063Z,11.20
2022-08-28T07:19:04.908Z,16.20
2022-08-28T07:22:41.123Z,15.90
2022-08-28T07:26:19.522Z,18.30
2022-08-28T07:29:53.355Z,13.90
2022-08-28T07:33:30.103Z,15.30
2022-08-28T07:37:07.279Z,17.60
2022-08-28T07:41:12.351Z,16.00
2022-08-28T07:44:49.874Z,20.60
2022-08-28T07:48:12.976Z,13.10
2022-08-28T07:51:49.355Z,16.70
2022-08-28T07:55:44.940Z,16.60
2022-08-28T07:59:25.176Z,14.00
2022-08-28T08:02:47.867Z,14.50
2022-08-28T08:06:44.506Z,11.20
2022-08-28T08:10:24.911Z,15.60
2022-08-28T08:13:48.327Z,15.40
2022-08-28T08:17:23.247Z,15.50
2022-08-28T08:21:21.587Z,12.70
2022-08-28T08:24:43.823Z,16.50
2022-08-28T08:28:21.089Z,15.70
2022-08-28T08:32:02.841Z,14.20
2022-08-28T08:35:37.218Z,11.60
2022-08-28T08:39:10.819Z,14.10
2022-08-28T08:42:51.182Z,13.10
2022-08-28T08:46:36.289Z,17.00
2022-08-28T08:50:20.943Z,11.30
2022-08-28T08:53:53.198Z,16.30
2022-08-28T08:57:38.920Z,12.40
2022-08-28T09:01:03.903Z,12.60
2022-08-28T09:05:02.636Z,14.90
2022-08-28T09:08:31.760Z,11.20
2022-08-28T09:12:13.331Z,10.30
2022-08-28T09:15:48.690Z,9.10
2022-08-28T09:19:19.979Z,10.10
2022-08-28T09:22:51.536Z,13.30
2022-08-28T09:26:29.264Z,10.50
2022-08-28T09:30:31.032Z,10.50
2022-08-28T09:33:53.469Z,10.00
2022-08-28T09:37:32.623Z,14.10
2022-08-28T09:41:30.653Z,13.00
2022-08-28T09:45:00.492Z,13.60
2022-08-28T09:48:51.755Z,11.40
2022-08-28T09:52:32.315Z,8.20
2022-08-28T09:56:26.500Z,9.80
2022-08-28T09:59:48.774Z,11.20
2022-08-28T10:03:33.573Z,13.00
2022-08-28T10:07:14.374Z,11.60
2022-08-28T10:10:50.690Z,9.70
2022-08-28T10:14:34.506Z,7.60
2022-08-28T10:18:36.817Z,8.70
2022-08-28T10:22:31.670Z,10.90
2022-08-28T10:26:15.446Z,8.10
2022-08-28T10:30:13.875Z,11.20
2022-08-28T10:33:50.493Z,7.00
2022-08-28T10:37:26.646Z,7.00
2022-08-28T10:41:15.942Z,10.00
2022-08-28T10:45:05.437Z,10.20
2022-08-28T10:48:37.883Z,9.90
2022-08-28T10:52:30.168Z,10.60
2022-08-28T10:56:00.285Z,8.30
2022-08-28T10:59:32.559Z,9.90
2022-08-28T11:03:32.707Z,13.70
2022-08-28T11:07:05.983Z,8.50
2022-08-28T11:10:58.198Z,10.20
2022-08-28T11:14:48.503Z,8.60
2022-08-28T11:18:14.743Z,6.70
2022-08-28T11:21:53.252Z,11.20
2022-08-28T11:25:45.420Z,14.00
2022-08-28T11:29:11.094Z,8.80
2022-08-28T11:32:49.665Z,11.20
2022-08-28T11:36:42.771Z,11.00
2022-08-28T11:40:41.468Z,12.80
2022-08-28T11:44:06.882Z,9.60
2022-08-28T11:47:47.417Z,26.80
2022-08-28T11:51:17.587Z,10.20
2022-08-28T11:54:57.849Z,12.40
2022-08-28T11:58:58.083Z,8.20
2022-08-28T12:02:41.412Z,13.70
2022-08-28T12:06:44.320Z,11.00
2022-08-28T12:10:29.002Z,13.20
2022-08-28T12:13:52.590Z,9.90
2022-08-28T12:17:42.568Z,10.90
2022-08-28T12:21:27.293Z,9.80
2022-08-28T12:24:57.968Z,7.90
2022-08-28T12:28:39.377Z,7.60
2022-08-28T12:32:42.736Z,11.10
2022-08-28T12:36:15.877Z,7.60
2022-08-28T12:39:42.547Z,10.10
2022-08-28T12:43:28.759Z,8.10
2022-08-28T12:46:55.347Z,7.50
2022-08-28T12:50:39.332Z,9.60
2022-08-28T12:54:17.066Z,7.60
2022-08-28T12:57:46.246Z,11.90
2022-08-28T13:01:21.691Z,10.00
2022-08-28T13:05:09.548Z,12.20
2022-08-28T13:08:37.320Z,11.40
2022-08-28T13:12:56.096Z,6.60
2022-08-28T13:16:43.210Z,8.40
2022-08-28T13:20:07.452Z,8.30
2022-08-28T13:23:42.451Z,9.70
2022-08-28T13:27:39.918Z,8.10
2022-08-28T13:31:42.338Z,6.70
2022-08-28T13:35:29.010Z,7.50
2022-08-28T13:38:51.515Z,11.90
2022-08-28T13:42:31.324Z,5.30
2022-08-28T13:46:24.143Z,6.80
2022-08-28T13:49:46.564Z,5.60
2022-08-28T13:53:22.662Z,7.10
2022-08-28T13:57:18.548Z,4.90
2022-08-28T14:00:44.885Z,4.90
2022-08-28T14:04:36.667Z,5.40
2022-08-28T14:07:58.155Z,4.40
2022-08-28T14:11:35.143Z,3.40
2022-08-28T14:15:12.983Z,6.90
2022-08-28T14:18:48.698Z,3.80
2022-08-28T14:22:26.496Z,17.20
2022-08-28T14:26:21.130Z,16.30
2022-08-28T14:30:04.507Z,5.10
2022-08-28T14:33:26.683Z,3.80
2022-08-28T14:37:03.421Z,3.90
2022-08-28T14:40:41.782Z,5.50
2022-08-28T14:44:17.888Z,4.30
2022-08-28T14:48:14.220Z,7.50
2022-08-28T14:51:38.566Z,7.10
2022-08-28T14:55:14.964Z,6.00
2022-08-28T15:16:40.721Z,4.40
2022-08-28T15:20:03.926Z,3.40
2022-08-28T15:23:40.358Z,4.20
2022-08-28T15:27:16.258Z,6.40
2022-08-28T15:30:53.014Z,4.10
2022-08-28T15:34:30.366Z,3.90
2022-08-28T15:38:07.254Z,2.00
2022-08-28T15:41:47.033Z,2.50
2022-08-28T15:45:20.744Z,4.00
2022-08-28T15:48:57.943Z,2.20
2022-08-28T15:52:33.572Z,3.00
2022-08-28T15:56:11.521Z,3.20
2022-08-28T15:59:50.052Z,2.70
2022-08-28T16:03:24.479Z,3.00
2022-08-28T16:07:01.283Z,2.90
2022-08-28T16:10:38.641Z,2.40
2022-08-28T16:14:20.928Z,2.20
2022-08-28T16:17:51.476Z,3.10
2022-08-28T16:21:28.592Z,6.30
2022-08-28T16:25:06.797Z,3.90
2022-08-28T16:28:44.775Z,4.80
2022-08-28T16:32:18.551Z,6.20
2022-08-28T16:35:56.419Z,2.40
2022-08-28T16:39:32.033Z,3.20
2022-08-28T16:43:09.498Z,6.50
2022-08-28T16:46:45.764Z,4.40
2022-08-28T16:50:22.717Z,2.90
2022-08-28T16:54:18.756Z,2.80
2022-08-28T16:57:40.739Z,5.30
2022-08-28T17:01:17.642Z,3.80
2022-08-28T17:04:58.186Z,6.60
2022-08-28T17:08:30.786Z,5.60
2022-08-28T17:12:07.667Z,5.90
2022-08-28T17:15:44.965Z,4.80
2022-08-28T17:19:40.162Z,4.70
2022-08-28T17:23:02.179Z,5.60
2022-08-28T17:26:59.123Z,5.50
2022-08-28T17:30:24.169Z,32.50
2022-08-28T17:34:00.932Z,45.50
2022-08-28T17:37:40.143Z,11.30
2022-08-28T17:41:14.934Z,8.70
2022-08-28T17:44:51.197Z,10.10
2022-08-28T17:48:28.110Z,9.40
2022-08-28T17:52:06.949Z,4.30
2022-08-28T17:55:41.725Z,35.70
2022-08-28T17:59:19.490Z,13.30
2022-08-28T18:02:56.758Z,8.10
2022-08-28T18:06:33.172Z,3.90
2022-08-28T18:10:12.567Z,5.00
2022-08-28T18:13:48.655Z,2.70
2022-08-28T18:17:22.338Z,5.00
2022-08-28T18:21:01.716Z,11.90
2022-08-28T18:24:36.717Z,8.90
2022-08-28T18:28:21.872Z,15.30
2022-08-28T18:31:49.723Z,9.20
2022-08-28T18:35:31.686Z,5.90
2022-08-28T18:39:03.829Z,5.30
2022-08-28T18:42:59.146Z,4.70
2022-08-28T18:46:21.416Z,5.80
2022-08-28T18:49:58.382Z,6.40
2022-08-28T18:53:36.286Z,4.70
2022-08-28T18:57:11.634Z,6.10
2022-08-28T19:00:48.983Z,6.10
2022-08-28T19:04:25.075Z,18.20
2022-08-28T19:08:22.458Z,15.50
2022-08-28T19:11:44.240Z,9.10
2022-08-28T19:15:20.783Z,7.20
2022-08-28T19:18:57.842Z,6.30
2022-08-28T19:22:35.038Z,5.80
2022-08-28T19:26:13.157Z,4.60
2022-08-28T19:29:48.203Z,4.60
2022-08-28T19:33:24.550Z,8.40
2022-08-28T19:37:02.407Z,5.40
2022-08-28T19:40:39.963Z,6.80
2022-08-28T19:44:37.642Z,6.10
2022-08-28T19:48:01.450Z,6.30
2022-08-28T19:51:38.162Z,5.60
2022-08-28T19:55:24.326Z,5.40
2022-08-28T19:58:50.172Z,7.60
2022-08-28T20:02:27.347Z,5.30
2022-08-28T20:06:05.123Z,5.30
2022-08-28T20:09:59.955Z,8.20
2022-08-28T20:13:22.273Z,7.90
2022-08-28T20:17:00.559Z,6.40
2022-08-28T20:20:36.403Z,8.40
2022-08-28T20:24:31.500Z,7.50
2022-08-28T20:28:12.300Z,9.30
2022-08-28T20:31:35.543Z,7.50
2022-08-28T20:35:12.570Z,6.30
2022-08-28T20:39:08.606Z,9.50
2022-08-28T20:42:31.792Z,8.00
2022-08-28T20:46:09.246Z,7.10
2022-08-28T20:49:43.907Z,9.30
2022-08-28T20:53:36.941Z,8.60
2022-08-28T20:57:04.930Z,6.10
2022-08-28T21:00:37.677Z,9.10
2022-08-28T21:04:15.231Z,5.10
2022-08-28T21:07:51.437Z,6.40
2022-08-28T21:11:46.821Z,5.30
2022-08-28T21:15:12.424Z,7.10
2022-08-28T21:19:14.043Z,6.80
2022-08-28T21:22:29.709Z,6.40
2022-08-28T21:26:23.553Z,4.20
2022-08-28T21:29:46.240Z,9.40
2022-08-28T21:33:22.254Z,4.70
2022-08-28T21:36:58.935Z,6.70
2022-08-28T21:40:35.730Z,4.80
2022-08-28T21:44:12.353Z,7.20
2022-08-28T21:48:08.195Z,5.60
2022-08-28T21:51:30.389Z,3.50
2022-08-28T21:55:11.507Z,5.70
2022-08-28T21:58:43.726Z,5.50
2022-08-28T22:02:20.786Z,5.90
2022-08-28T22:05:57.696Z,5.50
2022-08-28T22:09:34.191Z,3.50
2022-08-28T22:13:13.498Z,4.70
2022-08-28T22:16:47.890Z,2.70
2022-08-28T22:20:24.681Z,3.00
2022-08-28T22:24:02.204Z,4.30
2022-08-28T22:27:58.912Z,2.60
2022-08-28T22:31:21.035Z,2.30
2022-08-28T22:34:57.271Z,2.40
2022-08-28T22:38:34.803Z,4.60
2022-08-28T22:42:30.749Z,2.60
2022-08-28T22:45:52.419Z,2.40
2022-08-28T22:49:30.930Z,2.20
2022-08-28T22:53:06.384Z,1.60
2022-08-28T22:56:43.384Z,3.50
2022-08-28T23:00:24.082Z,2.60
2022-08-28T23:03:57.845Z,2.90
2022-08-28T23:07:33.263Z,1.80
2022-08-28T23:11:11.133Z,2.20
2022-08-28T23:14:48.779Z,1.60
2022-08-28T23:18:23.740Z,3.40
2022-08-28T23:22:00.461Z,2.40
2022-08-28T23:25:37.457Z,3.00
2022-08-28T23:29:14.146Z,2.70
2022-08-28T23:33:09.682Z,6.90
2022-08-28T23:36:32.410Z,4.70
2022-08-28T23:40:17.029Z,6.30
2022-08-28T23:43:44.697Z,6.00
2022-08-28T23:47:21.912Z,8.90
2022-08-28T23:50:59.032Z,7.60
2022-08-28T23:54:54.570Z,9.20
2022-08-28T23:58:18.345Z,6.80
